Ana Sayfa
METAR-TAF:

METAR-TAF

Havaalanları :

Kandiye, Yunanistan

Enlem: 35-20N, Boylam: 025-11E, yükseklik: 37 m

Güncel hava durumu gözlemi

Rapor saat 08:50 UTC de 32 dakika önce yapıldı.
Rüzgar güneydan 13 kt
Sıcaklık 22°C
Nem 88%
Basınç 1012 hPa
Görüş mesafesi 10 km veya daha fazla
2000 ft yükseklikte az bulutlu
8000 ft yükseklikte parçalı bulutlu

METAR: LGIR 190850Z 17013KT 9999 FEW020 SCT080 22/20 Q1012 NOSIG

Saat: 11:22 (09:22 UTC)

Tahmin

Rapor saat 05:00 UTC de 4 saat ve 22 dakika önce yapıldı.
Ayın 19'si saat 06 UTC'den ayın 20'si saat 06 UTC'ye kadar geçerli Tahmin
Rüzgar güneydan 10 kt
Görüş mesafesi 10 km veya daha fazla
2000 ft yükseklikte az bulutlu
Geçici
ayın 19'si saat 09 UTC'den ayın 19'si saat 13 UTC'ye kadar
Rüzgar batı/kuzeybatıdan 10 kt
Dönüşüyor
ayın 19'si saat 13 UTC'den ayın 19'si saat 15 UTC'ye kadar
Rüzgar değişken yönden 5 kt

TAF: LGIR 190500Z 1906/2006 18010KT 9999 FEW020 TEMPO 1909/1913 30010KT BECMG 1913/1915 VRB05KT

4.000'den fazla havaalanı için hava durumu gözlemleri ve tahminleri (METAR ve TAF raporları).

Kullanılabilir istasyonlar harita üzerinde sarı ve kırmızı noktalarla gösterilir.

İstasyonun adını görmek için fareyi noktanın üzerinde gezdirin.

Sonrasında hava gözlem ve tahminlerini görmek için tıklayın.

Haritayı değiştirmek için: yaklaştırmak için siyah artı işaretli yeşil düğmeye ve uzaklaştırmak için de eksi işaretli düğmeye hızla tıklayın; bitişik haritalar için yeşil okları kullanın.


METAR-TAF: